Time;durP1;ratioP1;P1;durP2;ratioP2;P2;SDS_P1;SDS_P2;PMS_P1;PMS_P2;Temp;Humidity;BMP_temperature;BMP_pressure;BME280_temperature;BME280_humidity;BME280_pressure;Samples;Min_cycle;Max_cycle;Signal;HPM_P1;HPM_P2
2022/12/25 00:01:54;;;;;;;11.37;4.60;;;;;;;;;;5012275;28;20410;-45
2022/12/25 00:04:20;;;;;;;17.60;5.27;;;;;;;;;;5015516;28;20465;-44
2022/12/25 00:06:46;;;;;;;9.27;5.50;;;;;;;;;;5008615;28;20430;-43
2022/12/25 00:09:12;;;;;;;18.87;5.03;;;;;;;;;;5015460;28;20774;-44
2022/12/25 00:11:38;;;;;;;13.83;5.77;;;;;;;;;;5016393;28;20775;-45
2022/12/25 00:14:04;;;;;;;21.35;5.45;;;;;;;;;;5015389;28;20758;-43
2022/12/25 00:16:30;;;;;;;16.97;7.47;;;;;;;;;;5012281;28;20570;-45
2022/12/25 00:18:57;;;;;;;14.63;5.20;;;;;;;;;;5016093;28;20501;-44
2022/12/25 00:21:24;;;;;;;7.60;4.70;;;;;;;;;;5009449;28;20410;-44
2022/12/25 00:23:57;;;;;;;14.07;5.40;;;;;;;;;;5015405;28;20462;-44
2022/12/25 00:26:23;;;;;;;5.10;4.00;;;;;;;;;;5014925;28;20450;-45
2022/12/25 00:28:56;;;;;;;14.87;5.33;;;;;;;;;;5012736;28;20497;-46
2022/12/25 00:31:23;;;;;;;15.50;5.10;;;;;;;;;;5015515;28;20416;-44
2022/12/25 00:33:49;;;;;;;15.13;5.10;;;;;;;;;;4996715;28;20447;-43
2022/12/25 00:36:16;;;;;;;20.70;4.87;;;;;;;;;;5010211;28;20804;-44
2022/12/25 00:38:42;;;;;;;12.23;4.10;;;;;;;;;;5015924;28;20455;-45
2022/12/25 00:41:15;;;;;;;7.13;4.40;;;;;;;;;;5015527;28;20426;-44
2022/12/25 00:43:42;;;;;;;8.47;4.97;;;;;;;;;;5014931;28;20885;-43
2022/12/25 00:46:08;;;;;;;14.73;4.30;;;;;;;;;;5010029;28;20432;-44
2022/12/25 00:48:34;;;;;;;9.23;4.53;;;;;;;;;;5015017;28;20473;-44
2022/12/25 00:51:01;;;;;;;10.00;4.23;;;;;;;;;;5010734;28;20415;-46
2022/12/25 00:53:28;;;;;;;8.23;4.40;;;;;;;;;;5010580;28;20411;-44
2022/12/25 00:55:58;;;;;;;8.20;4.00;;;;;;;;;;5015139;28;20431;-43
2022/12/25 00:58:24;;;;;;;9.17;4.37;;;;;;;;;;5011974;28;20429;-43
2022/12/25 01:00:51;;;;;;;13.23;4.50;;;;;;;;;;5014890;28;20886;-44
2022/12/25 01:03:17;;;;;;;14.53;4.07;;;;;;;;;;5008857;28;20453;-44
2022/12/25 01:05:43;;;;;;;10.80;4.77;;;;;;;;;;5014765;28;20465;-44
2022/12/25 01:08:09;;;;;;;8.90;4.30;;;;;;;;;;5014469;28;20430;-45
2022/12/25 01:10:36;;;;;;;11.60;3.87;;;;;;;;;;5011670;28;20984;-45
2022/12/25 01:13:02;;;;;;;13.30;4.40;;;;;;;;;;5014368;28;20453;-44
2022/12/25 01:15:28;;;;;;;8.43;4.47;;;;;;;;;;5014650;28;20929;-44
2022/12/25 01:17:53;;;;;;;10.77;3.70;;;;;;;;;;5012186;28;20525;-45
2022/12/25 01:20:19;;;;;;;12.83;3.40;;;;;;;;;;5013253;28;20416;-43
2022/12/25 01:22:45;;;;;;;9.47;3.20;;;;;;;;;;5013730;28;20477;-44
2022/12/25 01:25:12;;;;;;;10.87;4.00;;;;;;;;;;5013895;28;20536;-45
2022/12/25 01:27:38;;;;;;;5.83;3.33;;;;;;;;;;5010176;28;20433;-43
2022/12/25 01:30:05;;;;;;;6.67;3.57;;;;;;;;;;5014336;28;20459;-44
2022/12/25 01:32:31;;;;;;;11.40;4.00;;;;;;;;;;5014468;28;20410;-46
2022/12/25 01:34:57;;;;;;;12.70;3.67;;;;;;;;;;5006890;28;20441;-44
2022/12/25 01:37:23;;;;;;;11.70;3.53;;;;;;;;;;5013095;28;20464;-43
2022/12/25 01:39:49;;;;;;;5.87;3.13;;;;;;;;;;5013902;28;20897;-43
2022/12/25 01:42:20;;;;;;;5.77;3.30;;;;;;;;;;5014454;28;20497;-43
2022/12/25 01:44:47;;;;;;;7.60;3.23;;;;;;;;;;5013963;28;20429;-45
2022/12/25 01:47:14;;;;;;;10.40;3.63;;;;;;;;;;5014287;28;20437;-44
2022/12/25 01:49:41;;;;;;;7.53;3.47;;;;;;;;;;5014517;28;20516;-44
2022/12/25 01:52:10;;;;;;;11.20;3.63;;;;;;;;;;5014386;28;20450;-44
2022/12/25 01:54:40;;;;;;;5.27;3.00;;;;;;;;;;5011918;28;20409;-44
2022/12/25 01:57:08;;;;;;;10.60;3.93;;;;;;;;;;5013402;28;20504;-43
2022/12/25 01:59:34;;;;;;;6.13;3.10;;;;;;;;;;5008631;28;20414;-44
2022/12/25 02:02:00;;;;;;;13.13;3.70;;;;;;;;;;5013731;28;20820;-44
2022/12/25 02:04:37;;;;;;;8.77;4.60;;;;;;;;;;5014033;28;20470;-45
2022/12/25 02:07:08;;;;;;;14.93;7.40;;;;;;;;;;5004770;28;20429;-44
2022/12/25 02:09:34;;;;;;;7.33;3.23;;;;;;;;;;5014211;28;20405;-45
2022/12/25 02:12:00;;;;;;;3.50;2.73;;;;;;;;;;5013001;28;20418;-44
2022/12/25 02:14:28;;;;;;;6.60;3.83;;;;;;;;;;5010679;28;20418;-44
2022/12/25 02:17:00;;;;;;;12.10;3.70;;;;;;;;;;5012901;28;20970;-45
2022/12/25 02:19:29;;;;;;;10.20;3.30;;;;;;;;;;5014456;28;20425;-43
2022/12/25 02:21:58;;;;;;;6.23;2.80;;;;;;;;;;5008345;28;20461;-45
2022/12/25 02:24:27;;;;;;;5.00;3.10;;;;;;;;;;5013739;28;20465;-44
2022/12/25 02:27:03;;;;;;;9.80;3.30;;;;;;;;;;5007494;28;20430;-45
2022/12/25 02:29:32;;;;;;;9.43;3.87;;;;;;;;;;5013804;28;20409;-43
2022/12/25 02:32:04;;;;;;;10.87;3.80;;;;;;;;;;5012958;28;20983;-45
2022/12/25 02:34:37;;;;;;;10.93;3.20;;;;;;;;;;5009235;28;20422;-45
2022/12/25 02:37:06;;;;;;;5.90;2.77;;;;;;;;;;5013411;28;20431;-43
2022/12/25 02:39:59;;;;;;;3.70;2.87;;;;;;;;;;5009463;28;20447;-44
2022/12/25 03:07:30;;;;;;;5.37;2.70;;;;;;;;;;5004495;28;20459;-43
2022/12/25 03:12:45;;;;;;;6.70;2.70;;;;;;;;;;5011355;28;20478;-43
2022/12/25 03:17:58;;;;;;;6.53;3.30;;;;;;;;;;5010742;28;20876;-43
2022/12/25 03:28:40;;;;;;;4.67;2.63;;;;;;;;;;5009895;28;20422;-42
2022/12/25 03:31:19;;;;;;;7.30;3.73;;;;;;;;;;5008142;28;20414;-42
2022/12/25 03:35:21;;;;;;;5.90;2.60;;;;;;;;;;5011438;28;20435;-43
2022/12/25 03:36:52;;;;;;;12.97;3.70;;;;;;;;;;5004429;28;20453;-44
2022/12/25 04:37:31;;;;;;;9.07;3.47;;;;;;;;;;5018329;28;20446;-43
2022/12/25 04:39:57;;;;;;;7.60;3.20;;;;;;;;;;5014319;28;20403;-43
2022/12/25 04:42:23;;;;;;;10.27;3.27;;;;;;;;;;5013081;28;20411;-42
2022/12/25 04:44:49;;;;;;;7.30;3.20;;;;;;;;;;5007919;28;20486;-42
2022/12/25 04:47:15;;;;;;;8.93;3.50;;;;;;;;;;5007735;28;20455;-42
2022/12/25 04:49:41;;;;;;;5.87;3.03;;;;;;;;;;5010985;28;20519;-43
2022/12/25 04:52:07;;;;;;;7.23;2.97;;;;;;;;;;5014271;28;20404;-43
2022/12/25 04:54:33;;;;;;;8.63;3.40;;;;;;;;;;5014586;28;20909;-42
2022/12/25 04:56:59;;;;;;;5.00;2.73;;;;;;;;;;5013739;28;20438;-43
2022/12/25 04:59:25;;;;;;;9.93;3.13;;;;;;;;;;5007691;28;20419;-43
2022/12/25 05:01:51;;;;;;;7.37;3.37;;;;;;;;;;5013471;28;20518;-43
2022/12/25 05:04:17;;;;;;;6.63;3.10;;;;;;;;;;5013896;28;20462;-42
2022/12/25 05:06:43;;;;;;;6.03;2.90;;;;;;;;;;5013506;28;20863;-42
2022/12/25 05:09:09;;;;;;;9.73;3.10;;;;;;;;;;5012111;28;20406;-41
2022/12/25 05:11:35;;;;;;;14.50;2.83;;;;;;;;;;5011117;28;20411;-42
2022/12/25 05:14:01;;;;;;;10.03;2.97;;;;;;;;;;5013807;28;20407;-43
2022/12/25 05:16:27;;;;;;;8.57;3.77;;;;;;;;;;5005687;28;20435;-42
2022/12/25 05:18:53;;;;;;;9.13;3.20;;;;;;;;;;5012640;28;20465;-42
2022/12/25 05:21:19;;;;;;;8.47;3.33;;;;;;;;;;5010767;28;20946;-43
2022/12/25 05:23:47;;;;;;;6.27;3.40;;;;;;;;;;5013515;28;20562;-43
2022/12/25 05:26:14;;;;;;;10.57;3.63;;;;;;;;;;5009045;28;20922;-43
2022/12/25 05:28:41;;;;;;;8.90;2.77;;;;;;;;;;5011719;28;20933;-42
2022/12/25 05:31:07;;;;;;;7.20;3.13;;;;;;;;;;5013413;28;20505;-42
2022/12/25 05:33:32;;;;;;;6.73;2.87;;;;;;;;;;5013451;28;20554;-42
2022/12/25 05:36:02;;;;;;;8.27;3.07;;;;;;;;;;5010308;28;20426;-42
2022/12/25 05:38:28;;;;;;;5.10;3.00;;;;;;;;;;5013297;28;20423;-43
2022/12/25 05:40:54;;;;;;;5.10;3.30;;;;;;;;;;5002928;28;20505;-43
2022/12/25 05:43:20;;;;;;;9.10;3.40;;;;;;;;;;5006839;28;20467;-42
2022/12/25 05:45:46;;;;;;;5.03;3.07;;;;;;;;;;5010919;28;20412;-43
2022/12/25 05:48:11;;;;;;;7.60;3.17;;;;;;;;;;5013019;28;20859;-41
2022/12/25 05:50:38;;;;;;;6.43;3.00;;;;;;;;;;5012975;28;20427;-42
2022/12/25 05:53:04;;;;;;;9.77;3.20;;;;;;;;;;5008747;28;20411;-43
2022/12/25 05:55:33;;;;;;;7.63;3.30;;;;;;;;;;5012857;28;20430;-42
2022/12/25 05:57:59;;;;;;;9.80;3.27;;;;;;;;;;5012726;28;20431;-42
2022/12/25 06:00:24;;;;;;;6.07;3.37;;;;;;;;;;5012964;28;20423;-42
2022/12/25 06:02:50;;;;;;;4.23;2.83;;;;;;;;;;5010268;28;20461;-42
2022/12/25 06:05:16;;;;;;;6.70;3.10;;;;;;;;;;5012723;28;20501;-43
2022/12/25 06:07:42;;;;;;;6.10;3.17;;;;;;;;;;5012439;28;20437;-42
2022/12/25 06:10:08;;;;;;;15.17;3.30;;;;;;;;;;5006939;28;20414;-42
2022/12/25 06:12:34;;;;;;;3.97;2.80;;;;;;;;;;5012810;28;20415;-42
2022/12/25 06:15:00;;;;;;;4.53;2.77;;;;;;;;;;5012765;28;20415;-42
2022/12/25 06:17:27;;;;;;;4.93;2.40;;;;;;;;;;5009866;28;20434;-43
2022/12/25 06:19:53;;;;;;;8.70;3.13;;;;;;;;;;5012465;28;20434;-42
2022/12/25 06:22:19;;;;;;;7.37;3.30;;;;;;;;;;5007967;28;20791;-42
2022/12/25 06:24:45;;;;;;;6.50;3.13;;;;;;;;;;5011275;28;20466;-42
2022/12/25 06:27:11;;;;;;;9.20;3.03;;;;;;;;;;5012208;28;20469;-42
2022/12/25 06:29:37;;;;;;;7.17;2.80;;;;;;;;;;5012339;28;20407;-43
2022/12/25 06:32:03;;;;;;;6.80;2.60;;;;;;;;;;5012337;28;20407;-42
2022/12/25 06:34:29;;;;;;;3.30;2.70;;;;;;;;;;5008402;28;20419;-42
2022/12/25 06:36:55;;;;;;;5.20;2.50;;;;;;;;;;5011850;28;20504;-43
2022/12/25 06:39:21;;;;;;;4.20;2.20;;;;;;;;;;5006340;28;20460;-42
2022/12/25 06:41:47;;;;;;;9.90;2.63;;;;;;;;;;5010567;28;20767;-43
2022/12/25 06:44:13;;;;;;;4.07;2.37;;;;;;;;;;5011779;28;20485;-42
2022/12/25 06:46:39;;;;;;;9.43;3.13;;;;;;;;;;5011746;28;20530;-41
2022/12/25 06:49:05;;;;;;;8.43;2.87;;;;;;;;;;5008206;28;20513;-42
2022/12/25 06:51:32;;;;;;;7.93;3.10;;;;;;;;;;5011879;28;20829;-42
2022/12/25 06:54:02;;;;;;;5.33;3.10;;;;;;;;;;5007360;28;20836;-42
2022/12/25 06:56:29;;;;;;;6.30;3.00;;;;;;;;;;5006368;28;20807;-42
2022/12/25 06:58:56;;;;;;;14.37;2.97;;;;;;;;;;5004077;28;20766;-42
2022/12/25 07:01:45;;;;;;;6.47;2.77;;;;;;;;;;5011893;28;20429;-42
2022/12/25 07:04:14;;;;;;;5.23;2.67;;;;;;;;;;5006615;28;20450;-41
2022/12/25 07:06:40;;;;;;;8.20;2.87;;;;;;;;;;5011398;28;20942;-42
2022/12/25 07:09:06;;;;;;;4.30;2.37;;;;;;;;;;5004031;28;20522;-43
2022/12/25 07:11:32;;;;;;;4.80;2.37;;;;;;;;;;5011738;28;20914;-42
2022/12/25 07:13:58;;;;;;;5.40;2.60;;;;;;;;;;5008586;28;21015;-41
2022/12/25 07:16:24;;;;;;;17.30;3.33;;;;;;;;;;5011359;28;20438;-42
2022/12/25 07:18:50;;;;;;;6.53;2.40;;;;;;;;;;5010563;28;20494;-41
2022/12/25 07:21:17;;;;;;;5.03;2.23;;;;;;;;;;5004332;28;20420;-42
2022/12/25 07:23:44;;;;;;;7.20;2.90;;;;;;;;;;5018048;28;20465;-43
2022/12/25 07:26:11;;;;;;;8.80;2.37;;;;;;;;;;5011415;28;20420;-42
2022/12/25 07:28:37;;;;;;;6.47;2.47;;;;;;;;;;5008964;28;20419;-41
2022/12/25 07:31:04;;;;;;;5.43;2.60;;;;;;;;;;5011421;28;20430;-42
2022/12/25 07:33:30;;;;;;;7.00;3.00;;;;;;;;;;5009204;28;20427;-42
2022/12/25 07:35:56;;;;;;;4.83;2.77;;;;;;;;;;5011509;28;20461;-42
2022/12/25 07:38:22;;;;;;;5.73;2.20;;;;;;;;;;5007131;28;20474;-43
2022/12/25 07:40:48;;;;;;;3.47;2.17;;;;;;;;;;5009068;28;20488;-42
2022/12/25 07:43:14;;;;;;;6.97;3.20;;;;;;;;;;5006192;28;20450;-41
2022/12/25 07:45:40;;;;;;;7.00;2.60;;;;;;;;;;5010703;28;20418;-42
2022/12/25 07:48:05;;;;;;;6.33;2.60;;;;;;;;;;5011146;28;20522;-42
2022/12/25 07:50:32;;;;;;;8.07;2.77;;;;;;;;;;5007505;28;20430;-41
2022/12/25 07:52:58;;;;;;;6.10;2.70;;;;;;;;;;5011324;28;20411;-42
2022/12/25 07:55:24;;;;;;;5.17;2.70;;;;;;;;;;5006161;28;20416;-41
2022/12/25 07:57:50;;;;;;;2.77;2.40;;;;;;;;;;5013673;28;20470;-42
2022/12/25 08:00:16;;;;;;;5.07;2.83;;;;;;;;;;5014878;28;20437;-42
2022/12/25 08:02:42;;;;;;;11.57;4.00;;;;;;;;;;5014434;28;20419;-42
2022/12/25 08:05:08;;;;;;;8.90;3.47;;;;;;;;;;5010391;28;20421;-42
2022/12/25 08:07:34;;;;;;;6.70;3.90;;;;;;;;;;5014229;28;20450;-42
2022/12/25 08:10:01;;;;;;;9.17;3.00;;;;;;;;;;5007328;28;20418;-42
2022/12/25 08:12:27;;;;;;;4.93;2.53;;;;;;;;;;5014075;28;20498;-42
2022/12/25 08:14:53;;;;;;;5.57;2.80;;;;;;;;;;5014139;28;20788;-42
2022/12/25 08:17:19;;;;;;;7.37;3.20;;;;;;;;;;5014790;28;20430;-41
2022/12/25 08:19:45;;;;;;;8.13;3.47;;;;;;;;;;5014768;28;20414;-43
2022/12/25 08:22:11;;;;;;;7.13;2.87;;;;;;;;;;5009627;28;20477;-43
2022/12/25 08:24:37;;;;;;;5.07;3.33;;;;;;;;;;5014447;28;20533;-42
2022/12/25 08:27:03;;;;;;;5.73;3.00;;;;;;;;;;5014374;28;20423;-41
2022/12/25 08:29:29;;;;;;;10.23;3.77;;;;;;;;;;5014348;28;20826;-42
2022/12/25 08:31:55;;;;;;;7.97;3.10;;;;;;;;;;5010838;28;20777;-42
2022/12/25 08:34:21;;;;;;;8.93;3.50;;;;;;;;;;5014440;28;20929;-41
2022/12/25 08:36:47;;;;;;;7.80;3.40;;;;;;;;;;5013915;28;20427;-41
2022/12/25 08:39:13;;;;;;;8.10;3.53;;;;;;;;;;5014145;28;20960;-42
2022/12/25 08:41:39;;;;;;;8.70;3.33;;;;;;;;;;5014134;28;20418;-42
2022/12/25 08:44:05;;;;;;;5.67;3.10;;;;;;;;;;5013739;28;20461;-42
2022/12/25 08:46:32;;;;;;;7.60;3.20;;;;;;;;;;5018181;28;20496;-42
2022/12/25 08:48:58;;;;;;;7.53;3.80;;;;;;;;;;5014034;28;20423;-42
2022/12/25 08:51:24;;;;;;;4.47;2.90;;;;;;;;;;5013547;28;20419;-42
2022/12/25 08:53:52;;;;;;;9.33;3.47;;;;;;;;;;5012455;28;20407;-42
2022/12/25 08:56:18;;;;;;;6.90;3.63;;;;;;;;;;5011324;28;20787;-43
2022/12/25 08:58:44;;;;;;;6.50;3.60;;;;;;;;;;5013909;28;20856;-42
2022/12/25 09:01:11;;;;;;;4.47;3.73;;;;;;;;;;5011674;28;20779;-42
2022/12/25 09:03:37;;;;;;;6.13;3.07;;;;;;;;;;4995553;28;20473;-42
2022/12/25 09:06:07;;;;;;;7.07;3.37;;;;;;;;;;5012227;28;20890;-42
2022/12/25 09:08:34;;;;;;;5.13;3.30;;;;;;;;;;5006797;28;20455;-42
2022/12/25 09:11:03;;;;;;;3.83;3.13;;;;;;;;;;5012565;28;20403;-42
2022/12/25 09:13:30;;;;;;;3.90;3.00;;;;;;;;;;5013218;28;20816;-42
2022/12/25 09:15:56;;;;;;;4.63;3.50;;;;;;;;;;5012745;28;20411;-42
2022/12/25 09:18:22;;;;;;;4.40;3.47;;;;;;;;;;5009687;28;20426;-43
2022/12/25 09:20:56;;;;;;;10.40;3.87;;;;;;;;;;5012872;28;20415;-42
2022/12/25 09:23:22;;;;;;;6.23;3.50;;;;;;;;;;5006194;28;20453;-42
2022/12/25 09:25:48;;;;;;;4.97;3.47;;;;;;;;;;5012315;28;20415;-42
2022/12/25 09:28:14;;;;;;;6.57;3.83;;;;;;;;;;5012822;28;20439;-42
2022/12/25 09:30:40;;;;;;;3.70;3.40;;;;;;;;;;5009518;28;20406;-43
2022/12/25 09:33:06;;;;;;;8.03;4.00;;;;;;;;;;5012883;28;20498;-42
2022/12/25 09:35:32;;;;;;;6.13;3.83;;;;;;;;;;5013015;28;20411;-42
2022/12/25 09:37:58;;;;;;;6.43;4.10;;;;;;;;;;4998186;28;20438;-42
2022/12/25 09:40:25;;;;;;;3.60;3.40;;;;;;;;;;5004375;28;20407;-42
2022/12/25 09:42:52;;;;;;;5.00;3.73;;;;;;;;;;5010999;28;20451;-42
2022/12/25 09:45:31;;;;;;;3.90;3.10;;;;;;;;;;5012438;28;20402;-42
2022/12/25 09:47:57;;;;;;;7.30;3.77;;;;;;;;;;4996370;28;20794;-42
2022/12/25 09:50:38;;;;;;;6.27;3.67;;;;;;;;;;5002514;28;20411;-43
2022/12/25 09:53:27;;;;;;;7.33;4.00;;;;;;;;;;5005763;28;20780;-42
2022/12/25 09:56:00;;;;;;;3.83;3.47;;;;;;;;;;5012011;28;20461;-42
2022/12/25 09:58:28;;;;;;;5.23;3.90;;;;;;;;;;5009708;28;20833;-42
2022/12/25 10:01:01;;;;;;;6.57;4.60;;;;;;;;;;5011743;28;20434;-43
2022/12/25 10:03:46;;;;;;;5.83;3.53;;;;;;;;;;5008718;28;20950;-42
2022/12/25 10:06:16;;;;;;;8.77;4.17;;;;;;;;;;5006735;28;20926;-41
2022/12/25 10:09:03;;;;;;;5.67;3.67;;;;;;;;;;5003953;28;20490;-42
2022/12/25 10:11:40;;;;;;;6.90;4.40;;;;;;;;;;5010960;28;20414;-45
2022/12/25 10:14:09;;;;;;;7.90;4.20;;;;;;;;;;5012225;28;20449;-41
2022/12/25 10:16:35;;;;;;;6.53;4.50;;;;;;;;;;5006869;28;20438;-41
2022/12/25 10:19:10;;;;;;;8.07;4.10;;;;;;;;;;5011311;28;20411;-42
2022/12/25 10:21:36;;;;;;;5.43;3.30;;;;;;;;;;5003948;28;21011;-42
2022/12/25 10:24:09;;;;;;;4.33;3.83;;;;;;;;;;5010077;28;20459;-42
2022/12/25 10:26:35;;;;;;;4.17;3.43;;;;;;;;;;5011116;28;20461;-41
2022/12/25 10:29:20;;;;;;;3.83;3.50;;;;;;;;;;4994823;28;20907;-42
2022/12/25 10:31:47;;;;;;;4.43;4.03;;;;;;;;;;5011565;28;20985;-41
2022/12/25 10:34:14;;;;;;;3.50;3.20;;;;;;;;;;5006804;28;20770;-41
2022/12/25 10:36:41;;;;;;;7.10;3.33;;;;;;;;;;5011394;28;20861;-41
2022/12/25 10:39:07;;;;;;;4.73;3.40;;;;;;;;;;5011874;28;20513;-42
2022/12/25 10:41:51;;;;;;;3.80;3.40;;;;;;;;;;5011818;28;20512;-42
2022/12/25 10:44:19;;;;;;;4.00;3.10;;;;;;;;;;5007568;28;20513;-42
2022/12/25 10:46:53;;;;;;;3.60;3.30;;;;;;;;;;5011646;28;20639;-42
2022/12/25 10:49:20;;;;;;;4.10;3.10;;;;;;;;;;5005658;28;20508;-43
2022/12/25 10:51:46;;;;;;;4.00;3.20;;;;;;;;;;5009641;28;20523;-41
2022/12/25 10:54:29;;;;;;;3.93;2.90;;;;;;;;;;5012127;28;20946;-42
2022/12/25 10:56:55;;;;;;;4.67;3.00;;;;;;;;;;5010561;28;20899;-42
2022/12/25 10:59:21;;;;;;;3.60;3.30;;;;;;;;;;5011944;28;20494;-42
2022/12/25 11:01:47;;;;;;;3.87;3.47;;;;;;;;;;5011273;28;20790;-42
2022/12/25 11:04:20;;;;;;;2.43;2.30;;;;;;;;;;5003622;28;20485;-42
2022/12/25 11:06:55;;;;;;;3.53;2.57;;;;;;;;;;5009375;28;20473;-44
2022/12/25 11:09:21;;;;;;;3.33;3.00;;;;;;;;;;5010766;28;20410;-41
2022/12/25 11:11:48;;;;;;;3.57;2.93;;;;;;;;;;5006831;28;20419;-42
2022/12/25 11:14:19;;;;;;;3.20;2.90;;;;;;;;;;5012510;28;20419;-41
2022/12/25 11:16:45;;;;;;;2.70;2.30;;;;;;;;;;5009978;28;20463;-43
2022/12/25 11:19:28;;;;;;;2.53;2.23;;;;;;;;;;5006451;28;20415;-42
2022/12/25 11:21:56;;;;;;;2.30;2.10;;;;;;;;;;5011228;28;20910;-42
2022/12/25 11:24:24;;;;;;;3.40;2.33;;;;;;;;;;5010769;28;20976;-43
2022/12/25 11:26:51;;;;;;;6.33;2.70;;;;;;;;;;5010336;28;20952;-42
2022/12/25 11:29:38;;;;;;;3.17;2.20;;;;;;;;;;5001341;28;20978;-41
2022/12/25 11:32:05;;;;;;;2.97;2.40;;;;;;;;;;5005649;28;20472;-41
2022/12/25 11:34:34;;;;;;;2.50;2.10;;;;;;;;;;5015849;28;20435;-42
2022/12/25 11:37:02;;;;;;;2.73;2.07;;;;;;;;;;5015076;28;20471;-42
2022/12/25 11:39:30;;;;;;;2.53;2.33;;;;;;;;;;5015898;28;20820;-42
2022/12/25 11:42:04;;;;;;;3.40;2.20;;;;;;;;;;5015720;28;20414;-42
2022/12/25 11:44:30;;;;;;;2.73;2.53;;;;;;;;;;5015773;28;20516;-41
2022/12/25 11:46:56;;;;;;;5.20;2.30;;;;;;;;;;5015300;28;20431;-42
2022/12/25 11:49:22;;;;;;;2.70;2.50;;;;;;;;;;5015192;28;20447;-42
2022/12/25 11:51:51;;;;;;;4.10;2.13;;;;;;;;;;5015233;28;20997;-41
2022/12/25 11:54:22;;;;;;;2.40;2.20;;;;;;;;;;5015617;28;20493;-41
2022/12/25 11:56:48;;;;;;;2.60;2.40;;;;;;;;;;5007724;28;20810;-42
2022/12/25 11:59:26;;;;;;;3.77;2.10;;;;;;;;;;4995792;28;20740;-40
2022/12/25 12:01:54;;;;;;;4.60;2.47;;;;;;;;;;5010075;28;20423;-41
2022/12/25 12:04:23;;;;;;;2.43;2.23;;;;;;;;;;5015247;28;20462;-41
2022/12/25 12:06:58;;;;;;;4.90;2.33;;;;;;;;;;5014885;28;20466;-42
2022/12/25 12:09:24;;;;;;;2.13;2.00;;;;;;;;;;5015057;28;20410;-43
2022/12/25 12:12:10;;;;;;;2.50;2.00;;;;;;;;;;5015051;28;20415;-41
2022/12/25 12:14:53;;;;;;;1.97;1.87;;;;;;;;;;5014740;28;20425;-41
2022/12/25 12:17:19;;;;;;;3.20;2.40;;;;;;;;;;5014882;28;20519;-41
2022/12/25 12:19:45;;;;;;;2.10;2.00;;;;;;;;;;5014805;28;20442;-42
2022/12/25 12:22:19;;;;;;;2.43;2.20;;;;;;;;;;5014714;28;20437;-42
2022/12/25 12:24:47;;;;;;;2.63;2.43;;;;;;;;;;5014673;28;20449;-41
2022/12/25 12:27:20;;;;;;;2.07;1.87;;;;;;;;;;5014487;28;20431;-42
2022/12/25 12:29:49;;;;;;;2.30;2.10;;;;;;;;;;5014781;28;20403;-41
2022/12/25 12:32:34;;;;;;;2.57;2.37;;;;;;;;;;5014420;28;20408;-42
2022/12/25 12:35:05;;;;;;;2.37;2.10;;;;;;;;;;4995073;28;20503;-42
2022/12/25 12:37:35;;;;;;;2.90;2.40;;;;;;;;;;5013851;28;20430;-42
2022/12/25 12:40:02;;;;;;;6.20;2.73;;;;;;;;;;5014460;28;20411;-42
2022/12/25 12:42:30;;;;;;;2.90;2.70;;;;;;;;;;5013402;28;20415;-41
2022/12/25 12:45:06;;;;;;;2.27;2.00;;;;;;;;;;5014280;28;20974;-42
2022/12/25 12:47:40;;;;;;;3.07;2.77;;;;;;;;;;5014027;28;20439;-43
2022/12/25 12:50:07;;;;;;;2.20;2.00;;;;;;;;;;5014373;28;20434;-43
2022/12/25 12:52:35;;;;;;;2.53;2.33;;;;;;;;;;5014077;28;20415;-41
2022/12/25 12:55:03;;;;;;;2.63;2.43;;;;;;;;;;5012039;28;20443;-42
2022/12/25 12:57:31;;;;;;;4.17;2.90;;;;;;;;;;5010903;28;20443;-43
2022/12/25 12:59:58;;;;;;;3.33;2.53;;;;;;;;;;4994479;28;20412;-41
2022/12/25 13:02:42;;;;;;;3.50;2.53;;;;;;;;;;5009692;28;20820;-42
2022/12/25 13:05:11;;;;;;;3.40;3.10;;;;;;;;;;4997870;28;20793;-42
2022/12/25 13:07:44;;;;;;;2.63;2.43;;;;;;;;;;4997655;28;20577;-42
2022/12/25 13:10:18;;;;;;;3.43;3.13;;;;;;;;;;4994363;28;20781;-41
2022/12/25 13:12:44;;;;;;;3.20;2.90;;;;;;;;;;5002106;28;20439;-41
2022/12/25 13:15:13;;;;;;;4.00;3.60;;;;;;;;;;5000881;28;20938;-42
2022/12/25 13:17:42;;;;;;;4.80;4.23;;;;;;;;;;5013623;28;20429;-42
2022/12/25 13:20:16;;;;;;;5.30;4.23;;;;;;;;;;5013678;28;20431;-42
2022/12/25 13:22:42;;;;;;;7.73;4.20;;;;;;;;;;5013670;28;20399;-42
2022/12/25 13:25:17;;;;;;;6.07;4.23;;;;;;;;;;5013437;28;20761;-42
2022/12/25 13:27:43;;;;;;;7.90;3.87;;;;;;;;;;5013433;28;20437;-41
2022/12/25 13:30:13;;;;;;;5.73;4.97;;;;;;;;;;5013580;28;20415;-42
2022/12/25 13:32:40;;;;;;;7.27;4.50;;;;;;;;;;5013467;28;20459;-42
2022/12/25 13:35:11;;;;;;;4.77;4.30;;;;;;;;;;5003957;28;20419;-42
2022/12/25 13:37:38;;;;;;;8.03;4.10;;;;;;;;;;5001822;28;20841;-42
2022/12/25 13:40:05;;;;;;;5.60;4.83;;;;;;;;;;4994148;28;20467;-42
2022/12/25 13:42:35;;;;;;;6.50;5.30;;;;;;;;;;5006677;28;20446;-42
2022/12/25 13:45:05;;;;;;;8.03;6.10;;;;;;;;;;4993782;28;20460;-42
2022/12/25 13:47:32;;;;;;;8.00;6.13;;;;;;;;;;5007321;28;20439;-42
2022/12/25 13:50:00;;;;;;;6.03;5.27;;;;;;;;;;4996871;28;20428;-42
2022/12/25 13:52:36;;;;;;;10.77;6.03;;;;;;;;;;5005171;28;20447;-42
2022/12/25 13:55:13;;;;;;;9.67;7.10;;;;;;;;;;4994732;28;20965;-41
2022/12/25 13:57:40;;;;;;;8.97;6.40;;;;;;;;;;5012364;28;20438;-42
2022/12/25 14:00:15;;;;;;;6.00;5.30;;;;;;;;;;5012325;28;20502;-42
2022/12/25 14:02:41;;;;;;;8.40;6.00;;;;;;;;;;5012089;28;20469;-42
2022/12/25 14:05:40;;;;;;;8.27;5.57;;;;;;;;;;5013025;28;20517;-42
2022/12/25 14:08:13;;;;;;;7.53;6.20;;;;;;;;;;4973437;28;20882;-42
2022/12/25 14:10:40;;;;;;;8.40;5.83;;;;;;;;;;4992589;28;20400;-42
2022/12/25 14:13:10;;;;;;;8.63;6.10;;;;;;;;;;5010017;28;20795;-42
2022/12/25 14:15:38;;;;;;;14.97;6.20;;;;;;;;;;4993184;28;20440;-41
2022/12/25 14:18:04;;;;;;;8.07;5.80;;;;;;;;;;5009860;28;20443;-41
2022/12/25 14:20:34;;;;;;;8.70;6.70;;;;;;;;;;5012298;28;20526;-42
2022/12/25 14:23:00;;;;;;;9.67;5.87;;;;;;;;;;5012541;28;20799;-41
2022/12/25 14:25:29;;;;;;;12.10;6.20;;;;;;;;;;5012457;28;20446;-42
2022/12/25 14:27:55;;;;;;;12.80;7.37;;;;;;;;;;5006017;28;20440;-41
2022/12/25 14:30:23;;;;;;;10.90;7.57;;;;;;;;;;4992876;28;20444;-42
2022/12/25 14:32:49;;;;;;;9.83;6.53;;;;;;;;;;5006518;28;20422;-42
2022/12/25 14:35:16;;;;;;;10.53;6.97;;;;;;;;;;4992763;28;20400;-42
2022/12/25 14:37:42;;;;;;;9.20;6.93;;;;;;;;;;5005219;28;20431;-42
2022/12/25 14:40:17;;;;;;;8.80;6.73;;;;;;;;;;4997940;28;20408;-42
2022/12/25 14:42:53;;;;;;;8.30;7.40;;;;;;;;;;4992616;28;20412;-42
2022/12/25 14:45:27;;;;;;;14.57;7.97;;;;;;;;;;4992624;28;20428;-44
2022/12/25 14:47:54;;;;;;;9.80;7.40;;;;;;;;;;4998846;28;20443;-42
2022/12/25 14:50:29;;;;;;;8.37;6.93;;;;;;;;;;5011689;28;20526;-42
2022/12/25 14:52:56;;;;;;;9.07;7.30;;;;;;;;;;5011841;28;20421;-42
2022/12/25 14:55:27;;;;;;;9.23;7.10;;;;;;;;;;5010457;28;20919;-42
2022/12/25 14:57:55;;;;;;;16.07;6.97;;;;;;;;;;5005216;28;20431;-42
2022/12/25 15:00:21;;;;;;;15.13;8.80;;;;;;;;;;4992904;28;20427;-43
2022/12/25 15:02:47;;;;;;;7.23;6.50;;;;;;;;;;5009635;28;20423;-43
2022/12/25 15:05:24;;;;;;;12.50;7.93;;;;;;;;;;4998200;28;20416;-42
2022/12/25 15:08:09;;;;;;;9.60;6.63;;;;;;;;;;4992508;28;20635;-42
2022/12/25 15:10:35;;;;;;;10.97;7.20;;;;;;;;;;4992288;28;20416;-41
2022/12/25 15:13:01;;;;;;;7.13;6.43;;;;;;;;;;4997251;28;20416;-42
2022/12/25 15:15:29;;;;;;;12.13;7.80;;;;;;;;;;4992106;28;20923;-44
2022/12/25 15:17:55;;;;;;;14.17;7.83;;;;;;;;;;5001421;28;20427;-42
2022/12/25 15:20:24;;;;;;;10.43;7.30;;;;;;;;;;4992042;28;20420;-42
2022/12/25 15:22:50;;;;;;;9.13;7.47;;;;;;;;;;5003454;28;20510;-42
2022/12/25 15:25:16;;;;;;;10.97;7.40;;;;;;;;;;5011658;28;20497;-42
2022/12/25 15:27:42;;;;;;;9.63;6.97;;;;;;;;;;5011208;28;20486;-42
2022/12/25 15:30:12;;;;;;;14.63;8.53;;;;;;;;;;5011323;28;20453;-42
2022/12/25 15:32:38;;;;;;;10.60;6.60;;;;;;;;;;5011917;28;20762;-42
2022/12/25 15:35:04;;;;;;;13.57;7.87;;;;;;;;;;5011978;28;20469;-42
2022/12/25 15:37:30;;;;;;;14.23;7.13;;;;;;;;;;5011428;28;20491;-42
2022/12/25 15:39:56;;;;;;;7.10;6.40;;;;;;;;;;5011790;28;20399;-42
2022/12/25 15:42:23;;;;;;;8.63;7.57;;;;;;;;;;5011521;28;20903;-42
2022/12/25 15:44:49;;;;;;;11.10;8.00;;;;;;;;;;5011423;28;20467;-42
2022/12/25 15:47:16;;;;;;;8.80;7.33;;;;;;;;;;5011325;28;20771;-42
2022/12/25 15:49:42;;;;;;;11.70;7.10;;;;;;;;;;5011515;28;20989;-42
2022/12/25 15:52:10;;;;;;;9.43;7.20;;;;;;;;;;5011405;28;20419;-42
2022/12/25 15:54:37;;;;;;;10.60;7.70;;;;;;;;;;5011650;28;20423;-42
2022/12/25 15:57:04;;;;;;;11.63;8.73;;;;;;;;;;5009294;28;20509;-42
2022/12/25 15:59:30;;;;;;;15.03;8.00;;;;;;;;;;4990533;28;20466;-43
2022/12/25 16:01:57;;;;;;;12.87;9.20;;;;;;;;;;4994056;28;20424;-42
2022/12/25 16:04:24;;;;;;;10.43;6.80;;;;;;;;;;4995754;28;20860;-42
2022/12/25 16:06:50;;;;;;;12.70;7.10;;;;;;;;;;4992392;28;20447;-42
2022/12/25 16:09:18;;;;;;;12.10;7.57;;;;;;;;;;5001224;28;20892;-42
2022/12/25 16:11:44;;;;;;;9.20;7.90;;;;;;;;;;4991685;28;20450;-43
2022/12/25 16:14:10;;;;;;;8.00;6.97;;;;;;;;;;5011112;28;20432;-44
2022/12/25 16:16:37;;;;;;;9.00;6.57;;;;;;;;;;5011930;28;20426;-41
2022/12/25 16:19:03;;;;;;;7.13;6.43;;;;;;;;;;5014874;28;20445;-42
2022/12/25 16:21:33;;;;;;;8.57;7.20;;;;;;;;;;5014797;28;20800;-42
2022/12/25 16:23:59;;;;;;;8.33;7.10;;;;;;;;;;5014726;28;20462;-42
2022/12/25 16:26:25;;;;;;;7.23;6.53;;;;;;;;;;5014579;28;20848;-42